Time;durP1;ratioP1;P1;durP2;ratioP2;P2;SDS_P1;SDS_P2;PMS_P1;PMS_P2;Temp;Humidity;BMP_temperature;BMP_pressure;BME280_temperature;BME280_humidity;BME280_pressure;Samples;Min_cycle;Max_cycle;Signal;HPM_P1;HPM_P2
2021/08/03 00:02:01;;;;;;;;;;;;;;;20.81;57.11;99760.88;4447172;32;33105;-77
2021/08/03 00:04:35;;;;;;;;;;;;;;;20.78;58.06;99757.78;4460563;32;34945;-78
2021/08/03 00:07:03;;;;;;;;;;;;;;;20.85;57.45;99758.56;4432754;32;35956;-78
2021/08/03 00:09:31;;;;;;;;;;;;;;;20.98;56.99;99764.00;4461030;32;35661;-77
2021/08/03 00:11:59;;;;;;;;;;;;;;;20.91;57.25;99771.28;4459893;32;33364;-78
2021/08/03 00:14:27;;;;;;;;;;;;;;;21.01;57.06;99774.41;4446307;32;33599;-77
2021/08/03 00:16:55;;;;;;;;;;;;;;;20.96;56.79;99771.50;4433253;32;34856;-77
2021/08/03 00:19:24;;;;;;;;;;;;;;;20.93;56.82;99770.06;4446913;32;34027;-81
2021/08/03 00:21:52;;;;;;;;;;;;;;;20.88;56.82;99764.44;4461726;32;34181;-77
2021/08/03 00:24:21;;;;;;;;;;;;;;;20.64;58.43;99772.34;4445949;32;34245;-77
2021/08/03 00:26:55;;;;;;;;;;;;;;;20.80;57.56;99767.31;4459785;32;36362;-80
2021/08/03 00:29:23;;;;;;;;;;;;;;;20.71;57.96;99773.16;4446869;32;34610;-79
2021/08/03 00:31:51;;;;;;;;;;;;;;;20.73;57.77;99779.19;4446094;32;33063;-78
2021/08/03 00:34:19;;;;;;;;;;;;;;;20.70;57.94;99774.22;4446289;32;35704;-79
2021/08/03 00:36:47;;;;;;;;;;;;;;;20.65;57.88;99777.53;4419879;32;33742;-78
2021/08/03 00:39:14;;;;;;;;;;;;;;;20.70;57.59;99780.44;4446330;32;35363;-81
2021/08/03 00:41:57;;;;;;;;;;;;;;;20.42;58.90;99781.69;4460549;32;34277;-80
2021/08/03 00:44:43;;;;;;;;;;;;;;;20.48;59.07;99782.75;4446129;32;35055;-78
2021/08/03 00:47:11;;;;;;;;;;;;;;;20.51;58.75;99777.75;4444905;32;34137;-78
2021/08/03 00:49:40;;;;;;;;;;;;;;;20.59;57.89;99772.97;4446144;32;34511;-79
2021/08/03 00:52:10;;;;;;;;;;;;;;;20.62;57.97;99782.53;4433676;32;33395;-80
2021/08/03 00:54:38;;;;;;;;;;;;;;;20.62;57.69;99783.34;4445646;32;32951;-80
2021/08/03 00:57:07;;;;;;;;;;;;;;;20.59;57.43;99781.06;4432872;32;34369;-80
2021/08/03 00:59:36;;;;;;;;;;;;;;;20.57;57.54;99785.00;4432196;32;33454;-79
2021/08/03 01:02:04;;;;;;;;;;;;;;;20.41;58.41;99787.31;4431980;32;32184;-77
2021/08/03 01:04:34;;;;;;;;;;;;;;;20.48;58.39;99782.75;4460993;32;34188;-79
2021/08/03 01:07:11;;;;;;;;;;;;;;;20.39;58.80;99782.09;4459987;32;34777;-80
2021/08/03 01:09:46;;;;;;;;;;;;;;;20.44;58.53;99784.19;4446287;32;35629;-78
2021/08/03 01:12:29;;;;;;;;;;;;;;;20.16;59.84;99778.13;4461431;32;33379;-78
2021/08/03 01:15:02;;;;;;;;;;;;;;;20.45;58.72;99769.66;4461111;32;34024;-76
2021/08/03 01:17:42;;;;;;;;;;;;;;;20.50;58.14;99778.78;4458679;32;34648;-80
2021/08/03 01:20:16;;;;;;;;;;;;;;;20.47;58.72;99783.78;4459414;32;34642;-77
2021/08/03 01:22:48;;;;;;;;;;;;;;;20.50;58.22;99789.59;4423286;32;34182;-77
2021/08/03 01:25:30;;;;;;;;;;;;;;;20.41;58.61;99788.16;4445606;32;33789;-77
2021/08/03 01:27:58;;;;;;;;;;;;;;;20.44;58.80;99801.22;4445877;32;35299;-81
2021/08/03 01:30:26;;;;;;;;;;;;;;;20.41;59.06;99800.81;4458863;32;36519;-78
2021/08/03 01:32:54;;;;;;;;;;;;;;;20.34;59.63;99789.16;4433114;32;33759;-76
2021/08/03 01:35:24;;;;;;;;;;;;;;;20.50;58.33;99792.31;4447494;32;34069;-77
2021/08/03 01:37:52;;;;;;;;;;;;;;;20.42;58.66;99792.50;4430998;32;36329;-79
2021/08/03 01:40:20;;;;;;;;;;;;;;;20.42;58.72;99786.25;4433874;32;35267;-79
2021/08/03 01:42:50;;;;;;;;;;;;;;;20.44;58.67;99797.69;4445698;32;34076;-79
2021/08/03 01:45:19;;;;;;;;;;;;;;;20.40;58.87;99793.75;4433907;32;35433;-80
2021/08/03 01:47:47;;;;;;;;;;;;;;;20.36;59.12;99792.50;4444262;32;35149;-79
2021/08/03 01:50:16;;;;;;;;;;;;;;;20.37;59.08;99802.28;4445640;32;35627;-79
2021/08/03 01:52:45;;;;;;;;;;;;;;;20.33;59.10;99799.16;4447176;32;33611;-79
2021/08/03 01:55:13;;;;;;;;;;;;;;;20.23;59.33;99797.88;4445603;32;34746;-79
2021/08/03 01:57:42;;;;;;;;;;;;;;;20.18;59.84;99803.09;4444404;32;35383;-76
2021/08/03 02:00:12;;;;;;;;;;;;;;;20.27;59.62;99794.56;4431931;32;35532;-81
2021/08/03 02:02:42;;;;;;;;;;;;;;;20.22;59.72;99793.53;4460402;32;32847;-78
2021/08/03 02:05:11;;;;;;;;;;;;;;;20.11;60.04;99789.53;4431584;32;34304;-73
2021/08/03 02:07:41;;;;;;;;;;;;;;;19.88;61.34;99793.59;4432322;32;34058;-79
2021/08/03 02:10:10;;;;;;;;;;;;;;;20.10;59.90;99795.97;4446588;32;35437;-79
2021/08/03 02:12:38;;;;;;;;;;;;;;;20.17;59.50;99794.13;4459105;32;32742;-79
2021/08/03 02:15:07;;;;;;;;;;;;;;;20.19;59.59;99788.53;4435093;32;34276;-78
2021/08/03 02:17:35;;;;;;;;;;;;;;;20.21;59.59;99789.16;4432639;32;34240;-78
2021/08/03 02:20:05;;;;;;;;;;;;;;;20.12;60.41;99793.09;4447008;32;35901;-78
2021/08/03 02:22:34;;;;;;;;;;;;;;;20.15;59.74;99798.06;4445946;32;34965;-79
2021/08/03 02:25:02;;;;;;;;;;;;;;;20.03;59.64;99803.22;4431928;32;34072;-79
2021/08/03 02:27:30;;;;;;;;;;;;;;;19.86;60.25;99799.22;4431413;32;34467;-79
2021/08/03 02:29:58;;;;;;;;;;;;;;;20.00;59.65;99802.81;4431170;32;34708;-76
2021/08/03 02:32:27;;;;;;;;;;;;;;;19.92;59.85;99802.97;4445798;32;32737;-79
2021/08/03 02:35:02;;;;;;;;;;;;;;;19.91;60.17;99804.84;4431022;32;32725;-80
2021/08/03 02:37:32;;;;;;;;;;;;;;;19.95;59.96;99811.50;4453092;32;35658;-79
2021/08/03 02:40:03;;;;;;;;;;;;;;;19.69;60.62;99811.41;4431874;32;33657;-80
2021/08/03 02:42:41;;;;;;;;;;;;;;;19.83;60.44;99807.72;4433445;32;33105;-79
2021/08/03 02:45:12;;;;;;;;;;;;;;;19.93;59.89;99810.84;4435580;32;34310;-79
2021/08/03 02:47:49;;;;;;;;;;;;;;;20.04;58.96;99810.31;4443962;32;37170;-77
2021/08/03 02:50:17;;;;;;;;;;;;;;;20.00;59.11;99813.59;4432365;32;34829;-80
2021/08/03 02:52:46;;;;;;;;;;;;;;;19.84;60.13;99809.41;4448702;32;33528;-81
2021/08/03 02:55:14;;;;;;;;;;;;;;;19.97;59.30;99811.28;4422183;32;32914;-81
2021/08/03 02:57:42;;;;;;;;;;;;;;;19.90;59.53;99815.88;4446745;32;35511;-78
2021/08/03 03:00:12;;;;;;;;;;;;;;;19.82;60.36;99810.63;4445005;32;33880;-78
2021/08/03 03:02:41;;;;;;;;;;;;;;;19.73;60.60;99820.75;4431078;32;32901;-78
2021/08/03 03:05:16;;;;;;;;;;;;;;;19.80;60.13;99818.13;4433011;32;34405;-77
2021/08/03 03:07:47;;;;;;;;;;;;;;;19.91;59.38;99820.22;4443795;32;37388;-79
2021/08/03 03:10:17;;;;;;;;;;;;;;;19.84;59.28;99831.00;4444372;32;34449;-78
2021/08/03 03:12:47;;;;;;;;;;;;;;;19.77;59.68;99832.00;4443995;32;33319;-79
2021/08/03 03:15:15;;;;;;;;;;;;;;;19.68;60.21;99834.06;4447867;32;33242;-81
2021/08/03 03:17:43;;;;;;;;;;;;;;;19.62;60.14;99836.72;4432832;32;35983;-75
2021/08/03 03:20:11;;;;;;;;;;;;;;;19.62;60.60;99842.94;4446804;32;34651;-79
2021/08/03 03:22:41;;;;;;;;;;;;;;;19.08;62.06;99849.25;4446455;32;33829;-74
2021/08/03 03:25:15;;;;;;;;;;;;;;;19.04;62.54;99846.09;4438742;32;34035;-78
2021/08/03 03:27:44;;;;;;;;;;;;;;;19.35;61.23;99853.81;4446646;32;35157;-79
2021/08/03 03:30:16;;;;;;;;;;;;;;;19.32;61.82;99857.72;4434486;32;35039;-80
2021/08/03 03:32:44;;;;;;;;;;;;;;;19.35;61.25;99856.50;4461995;32;33215;-80
2021/08/03 03:35:17;;;;;;;;;;;;;;;18.92;62.83;99858.47;4433882;32;34740;-82
2021/08/03 03:37:47;;;;;;;;;;;;;;;19.15;62.17;99855.53;4431702;32;34192;-78
2021/08/03 03:40:15;;;;;;;;;;;;;;;19.27;62.13;99857.47;4435278;32;35225;-74
2021/08/03 03:42:43;;;;;;;;;;;;;;;19.53;59.81;99856.81;4446377;32;32703;-79
2021/08/03 03:45:11;;;;;;;;;;;;;;;19.51;60.20;99857.00;4446347;32;33762;-78
2021/08/03 03:47:40;;;;;;;;;;;;;;;19.53;59.84;99854.94;4432358;32;36554;-81
2021/08/03 03:50:09;;;;;;;;;;;;;;;19.54;60.07;99863.87;4419611;32;35768;-80
2021/08/03 03:52:43;;;;;;;;;;;;;;;19.42;60.68;99865.44;4444805;32;34677;-79
2021/08/03 03:55:15;;;;;;;;;;;;;;;19.08;62.59;99860.84;4433489;32;33949;-76
2021/08/03 03:57:43;;;;;;;;;;;;;;;19.30;62.29;99859.78;4460723;32;34723;-78
2021/08/03 04:00:12;;;;;;;;;;;;;;;19.50;61.27;99857.19;4432912;32;33509;-78
2021/08/03 04:02:42;;;;;;;;;;;;;;;19.40;61.59;99859.41;4446674;32;33068;-78
2021/08/03 04:05:11;;;;;;;;;;;;;;;19.33;62.30;99863.94;4446858;32;33964;-78
2021/08/03 04:07:41;;;;;;;;;;;;;;;19.12;62.47;99867.53;4432524;32;36360;-78
2021/08/03 04:10:09;;;;;;;;;;;;;;;19.13;62.17;99863.78;4431529;32;35582;-79
2021/08/03 04:12:37;;;;;;;;;;;;;;;19.42;61.93;99860.06;4433390;32;34877;-78
2021/08/03 04:15:06;;;;;;;;;;;;;;;19.56;60.52;99861.81;4445414;32;34247;-82
2021/08/03 04:17:34;;;;;;;;;;;;;;;19.55;60.84;99858.25;4446382;32;35387;-80
2021/08/03 04:20:02;;;;;;;;;;;;;;;19.53;61.09;99864.91;4433125;32;36426;-78
2021/08/03 04:22:30;;;;;;;;;;;;;;;19.59;60.98;99858.69;4460839;32;33071;-79
2021/08/03 04:24:57;;;;;;;;;;;;;;;19.61;61.28;99862.88;4435069;32;33423;-78
2021/08/03 04:27:25;;;;;;;;;;;;;;;19.74;60.79;99868.31;4445029;32;35174;-82
2021/08/03 04:29:52;;;;;;;;;;;;;;;19.79;60.36;99863.16;4459466;32;34697;-79
2021/08/03 04:32:20;;;;;;;;;;;;;;;19.76;61.16;99868.12;4434225;32;34050;-80
2021/08/03 04:34:48;;;;;;;;;;;;;;;19.93;60.32;99867.56;4445175;32;34903;-76
2021/08/03 04:37:15;;;;;;;;;;;;;;;19.63;61.51;99860.78;4446512;32;34788;-78
2021/08/03 04:39:42;;;;;;;;;;;;;;;19.77;61.40;99859.84;4445825;32;34620;-78
2021/08/03 04:42:10;;;;;;;;;;;;;;;19.60;61.22;99869.31;4433661;32;32468;-79
2021/08/03 04:44:38;;;;;;;;;;;;;;;19.71;60.72;99868.72;4445805;32;34138;-79
2021/08/03 04:47:06;;;;;;;;;;;;;;;19.87;60.87;99870.25;4431529;32;36450;-82
2021/08/03 04:49:34;;;;;;;;;;;;;;;20.01;60.55;99872.78;4459198;32;34774;-81
2021/08/03 04:52:04;;;;;;;;;;;;;;;20.20;60.48;99860.44;4434364;32;33379;-79
2021/08/03 04:54:31;;;;;;;;;;;;;;;20.34;59.98;99852.16;4447407;32;33776;-79
2021/08/03 04:56:59;;;;;;;;;;;;;;;20.28;60.95;99860.25;4431707;32;33990;-79
2021/08/03 04:59:27;;;;;;;;;;;;;;;20.25;61.00;99855.22;4445281;32;34252;-80
2021/08/03 05:01:55;;;;;;;;;;;;;;;20.53;60.44;99856.75;4460757;32;33947;-78
2021/08/03 05:04:23;;;;;;;;;;;;;;;20.59;60.33;99862.16;4434537;32;34320;-83
2021/08/03 05:06:57;;;;;;;;;;;;;;;20.19;61.11;99865.00;4297982;26;36111;-75
2021/08/03 05:09:24;;;;;;;;;;;;;;;20.61;60.15;99862.78;4415797;32;778784;-78
2021/08/03 05:11:52;;;;;;;;;;;;;;;20.51;60.33;99875.06;4431152;32;34110;-75
2021/08/03 05:14:19;;;;;;;;;;;;;;;20.44;60.29;99876.06;4430516;32;35722;-79
2021/08/03 05:16:47;;;;;;;;;;;;;;;20.53;59.67;99881.91;4444035;32;35358;-75
2021/08/03 05:19:14;;;;;;;;;;;;;;;20.84;58.59;99879.44;4443364;32;34205;-77
2021/08/03 05:21:42;;;;;;;;;;;;;;;21.15;57.77;99878.84;4430537;32;32980;-76
2021/08/03 05:24:10;;;;;;;;;;;;;;;21.27;57.13;99877.16;4418107;32;34595;-78
2021/08/03 05:26:38;;;;;;;;;;;;;;;21.37;57.13;99888.38;4431659;32;35424;-76
2021/08/03 05:29:05;;;;;;;;;;;;;;;21.38;57.29;99895.47;4442640;32;33921;-76
2021/08/03 05:31:33;;;;;;;;;;;;;;;21.02;58.32;99889.66;4430735;32;33948;-76
2021/08/03 05:34:03;;;;;;;;;;;;;;;21.39;57.54;99880.88;4430849;32;34826;-76
2021/08/03 05:36:31;;;;;;;;;;;;;;;21.52;57.76;99881.69;4441239;32;36353;-78
2021/08/03 05:38:58;;;;;;;;;;;;;;;21.63;57.65;99881.03;4442700;32;34514;-78
2021/08/03 05:41:26;;;;;;;;;;;;;;;20.96;58.81;99887.81;4442964;32;34841;-78
2021/08/03 05:43:53;;;;;;;;;;;;;;;21.03;59.22;99885.91;4456949;32;33695;-75
2021/08/03 05:46:21;;;;;;;;;;;;;;;21.67;58.75;99879.59;4442276;32;35164;-76
2021/08/03 05:48:48;;;;;;;;;;;;;;;21.69;58.88;99869.38;4443785;32;35072;-79
2021/08/03 05:51:16;;;;;;;;;;;;;;;22.13;57.34;99874.84;4444948;32;33887;-79
2021/08/03 05:53:43;;;;;;;;;;;;;;;21.84;57.50;99871.84;4432539;32;34900;-76
2021/08/03 05:56:11;;;;;;;;;;;;;;;22.29;56.95;99878.91;4445045;32;35156;-78
2021/08/03 05:58:38;;;;;;;;;;;;;;;22.36;55.50;99877.00;4432203;32;34972;-76
2021/08/03 06:01:06;;;;;;;;;;;;;;;22.36;55.24;99880.53;4433798;32;32095;-75
2021/08/03 06:03:34;;;;;;;;;;;;;;;22.63;55.30;99879.34;4431644;32;33971;-76
2021/08/03 06:06:05;;;;;;;;;;;;;;;22.78;54.31;99885.31;4436960;32;36206;-76
2021/08/03 06:08:32;;;;;;;;;;;;;;;22.77;54.05;99891.78;4443554;32;34756;-76
2021/08/03 06:10:59;;;;;;;;;;;;;;;22.51;54.80;99886.53;4444844;32;33881;-79
2021/08/03 06:13:27;;;;;;;;;;;;;;;22.67;54.68;99893.31;4440898;32;34324;-78
2021/08/03 06:15:54;;;;;;;;;;;;;;;22.81;55.16;99889.44;4444556;32;35180;-76
2021/08/03 06:18:25;;;;;;;;;;;;;;;23.35;52.76;99901.34;4444666;32;34977;-77
2021/08/03 06:20:54;;;;;;;;;;;;;;;23.08;53.00;99901.75;4432676;32;33723;-77
2021/08/03 06:23:22;;;;;;;;;;;;;;;23.58;50.90;99906.94;4433636;32;34687;-76
2021/08/03 06:25:54;;;;;;;;;;;;;;;23.53;51.53;99904.09;4419639;32;36284;-76
2021/08/03 06:28:22;;;;;;;;;;;;;;;23.62;50.93;99913.59;4450004;32;34814;-78
2021/08/03 06:30:49;;;;;;;;;;;;;;;24.03;50.26;99916.50;4431810;32;33997;-76
2021/08/03 06:33:20;;;;;;;;;;;;;;;23.89;51.09;99912.28;4453161;32;34213;-79
2021/08/03 06:35:49;;;;;;;;;;;;;;;23.96;50.61;99910.28;4432046;32;36138;-78
2021/08/03 06:38:18;;;;;;;;;;;;;;;24.07;50.52;99914.97;4454551;32;33847;-76
2021/08/03 06:40:46;;;;;;;;;;;;;;;23.87;50.62;99914.38;4431289;32;33783;-76
2021/08/03 06:43:16;;;;;;;;;;;;;;;24.34;50.92;99913.56;4433591;32;33870;-78
2021/08/03 06:45:47;;;;;;;;;;;;;;;24.07;50.20;99912.25;4444231;32;36058;-77
2021/08/03 06:48:38;;;;;;;;;;;;;;;24.69;48.64;99898.25;4444894;32;35712;-76
2021/08/03 06:51:09;;;;;;;;;;;;;;;24.47;45.89;99905.25;4426991;32;34187;-78
2021/08/03 06:53:37;;;;;;;;;;;;;;;25.06;46.01;99908.75;4427030;32;34710;-78
2021/08/03 06:56:04;;;;;;;;;;;;;;;25.03;45.39;99903.75;4414803;32;34471;-77
2021/08/03 06:58:35;;;;;;;;;;;;;;;25.47;45.74;99903.25;4413170;32;34171;-77
2021/08/03 07:01:03;;;;;;;;;;;;;;;25.09;45.65;99913.72;4426331;32;33431;-76
2021/08/03 07:03:32;;;;;;;;;;;;;;;25.17;45.39;99915.28;4414298;32;33955;-76
2021/08/03 07:06:00;;;;;;;;;;;;;;;25.37;43.88;99916.63;4414999;32;35105;-78
2021/08/03 07:08:27;;;;;;;;;;;;;;;25.69;43.78;99919.81;4414522;32;35142;-76
2021/08/03 07:10:55;;;;;;;;;;;;;;;25.46;43.55;99917.94;4402515;32;36164;-78
2021/08/03 07:13:22;;;;;;;;;;;;;;;25.57;44.37;99913.56;4413344;32;34023;-80
2021/08/03 07:15:51;;;;;;;;;;;;;;;26.18;44.11;99908.38;4413293;32;36030;-78
2021/08/03 07:18:21;;;;;;;;;;;;;;;26.15;44.43;99908.87;4413203;32;33959;-78
2021/08/03 07:20:49;;;;;;;;;;;;;;;25.13;43.06;99905.94;4424478;32;32330;-79
2021/08/03 07:23:19;;;;;;;;;;;;;;;26.19;43.13;99899.12;4408239;32;33774;-77
2021/08/03 07:25:52;;;;;;;;;;;;;;;25.72;42.46;99892.09;4417646;32;34879;-79
2021/08/03 07:28:20;;;;;;;;;;;;;;;26.62;42.79;99889.34;4435613;32;34112;-78
2021/08/03 07:30:47;;;;;;;;;;;;;;;27.00;41.72;99888.66;4417264;32;34175;-78
2021/08/03 07:33:15;;;;;;;;;;;;;;;27.15;41.10;99888.97;4443090;32;34749;-78
2021/08/03 07:35:43;;;;;;;;;;;;;;;27.24;41.20;99893.75;4429626;32;35924;-79
2021/08/03 07:38:15;;;;;;;;;;;;;;;27.18;41.10;99883.81;4407546;32;35567;-78
2021/08/03 07:40:42;;;;;;;;;;;;;;;27.09;41.10;99888.84;4433692;32;34129;-77
2021/08/03 07:43:10;;;;;;;;;;;;;;;27.38;41.68;99892.34;4429836;32;35553;-80
2021/08/03 07:45:38;;;;;;;;;;;;;;;27.28;40.98;99894.94;4442388;32;37133;-78
2021/08/03 07:48:08;;;;;;;;;;;;;;;27.31;41.28;99892.50;4442732;32;36240;-78
2021/08/03 07:50:36;;;;;;;;;;;;;;;26.09;42.71;99891.56;4450566;32;34387;-79
2021/08/03 07:53:24;;;;;;;;;;;;;;;26.98;43.54;99894.37;4432759;32;32575;-79
2021/08/03 07:55:59;;;;;;;;;;;;;;;27.35;41.55;99899.12;4443304;32;35456;-77
2021/08/03 07:58:28;;;;;;;;;;;;;;;27.29;41.30;99905.59;4442617;32;34770;-77
2021/08/03 08:00:57;;;;;;;;;;;;;;;27.17;41.64;99905.94;4444570;32;32449;-78
2021/08/03 08:03:26;;;;;;;;;;;;;;;26.88;41.40;99912.50;4405701;32;33018;-78
2021/08/03 08:05:53;;;;;;;;;;;;;;;26.92;41.50;99924.56;4445097;32;35484;-76
2021/08/03 08:08:21;;;;;;;;;;;;;;;27.24;40.94;99926.53;4427725;32;34309;-77
2021/08/03 08:10:49;;;;;;;;;;;;;;;27.26;39.84;99935.31;4436108;32;33822;-78
2021/08/03 08:13:16;;;;;;;;;;;;;;;27.13;39.39;99940.25;4429129;32;34178;-79
2021/08/03 08:15:45;;;;;;;;;;;;;;;27.08;41.46;99945.63;4418552;32;35488;-76
2021/08/03 08:18:14;;;;;;;;;;;;;;;26.60;42.20;99948.00;4403661;32;36683;-78
2021/08/03 08:20:45;;;;;;;;;;;;;;;26.51;41.77;99944.81;4417322;32;34799;-78
2021/08/03 08:23:15;;;;;;;;;;;;;;;26.63;41.94;99942.06;4416897;32;35959;-79
2021/08/03 08:25:46;;;;;;;;;;;;;;;26.69;41.82;99936.44;4434779;32;36788;-78
2021/08/03 08:28:13;;;;;;;;;;;;;;;27.00;42.38;99940.56;4422453;32;35095;-78
2021/08/03 08:30:42;;;;;;;;;;;;;;;27.19;40.68;99943.66;4414061;32;33035;-79
2021/08/03 08:33:09;;;;;;;;;;;;;;;27.27;40.13;99946.00;4429169;32;34512;-78
2021/08/03 08:35:39;;;;;;;;;;;;;;;27.08;41.91;99945.63;4414802;32;36684;-79
2021/08/03 08:38:08;;;;;;;;;;;;;;;26.66;43.65;99944.28;4428350;32;34468;-78
2021/08/03 08:40:40;;;;;;;;;;;;;;;25.79;40.23;99939.97;4413030;32;33576;-78
2021/08/03 08:43:12;;;;;;;;;;;;;;;26.51;40.40;99942.09;4426350;32;34083;-77
2021/08/03 08:45:43;;;;;;;;;;;;;;;26.93;41.63;99942.59;4430945;32;36443;-79
2021/08/03 08:48:13;;;;;;;;;;;;;;;27.36;39.72;99939.03;4418500;32;33719;-79
2021/08/03 08:50:42;;;;;;;;;;;;;;;27.33;39.68;99941.44;4419929;32;33273;-76
2021/08/03 08:53:10;;;;;;;;;;;;;;;27.36;40.06;99938.19;4438459;32;34133;-77
2021/08/03 08:55:39;;;;;;;;;;;;;;;27.21;41.90;99936.03;4418388;32;37147;-79
2021/08/03 08:58:10;;;;;;;;;;;;;;;27.37;39.91;99934.38;4419650;32;35263;-78
2021/08/03 09:00:39;;;;;;;;;;;;;;;26.90;42.71;99918.53;4415915;32;33913;-77
2021/08/03 09:03:07;;;;;;;;;;;;;;;27.30;39.66;99911.88;4422391;32;33286;-79
2021/08/03 09:06:05;;;;;;;;;;;;;;;26.89;41.47;99903.22;4421582;32;34291;-78
2021/08/03 09:08:37;;;;;;;;;;;;;;;27.22;41.72;99899.44;4399027;32;34854;-79
2021/08/03 09:11:12;;;;;;;;;;;;;;;27.54;40.54;99895.06;4404263;32;34779;-78
2021/08/03 09:13:48;;;;;;;;;;;;;;;27.80;40.09;99888.91;4428090;32;34664;-79
2021/08/03 09:16:41;;;;;;;;;;;;;;;27.72;35.57;99888.44;4410700;32;35858;-77
2021/08/03 09:19:29;;;;;;;;;;;;;;;27.75;37.91;99896.22;4428844;32;34678;-78
2021/08/03 09:22:13;;;;;;;;;;;;;;;27.37;38.95;99898.84;4415701;32;34465;-80
2021/08/03 09:24:42;;;;;;;;;;;;;;;27.94;36.79;99900.28;4407868;32;34643;-79
2021/08/03 09:27:29;;;;;;;;;;;;;;;28.00;37.73;99889.16;4426375;32;34513;-78
2021/08/03 09:29:59;;;;;;;;;;;;;;;27.54;38.93;99897.78;4426190;32;34713;-80
2021/08/03 09:32:31;;;;;;;;;;;;;;;27.57;39.46;99901.94;4427105;32;32322;-80
2021/08/03 09:35:15;;;;;;;;;;;;;;;28.26;37.63;99899.34;4415974;32;34509;-79
2021/08/03 09:37:43;;;;;;;;;;;;;;;27.75;38.05;99890.75;4433543;32;34891;-79
2021/08/03 09:40:19;;;;;;;;;;;;;;;28.35;36.81;99892.34;4417247;32;36350;-80
2021/08/03 09:42:58;;;;;;;;;;;;;;;28.09;37.74;99889.53;4427998;32;33600;-80
2021/08/03 09:45:26;;;;;;;;;;;;;;;28.62;36.30;99881.41;4441939;32;33043;-80
2021/08/03 09:48:15;;;;;;;;;;;;;;;27.81;37.71;99892.44;4436617;32;36116;-79
2021/08/03 09:50:52;;;;;;;;;;;;;;;27.95;35.60;99880.88;4427164;32;34939;-80
2021/08/03 09:53:34;;;;;;;;;;;;;;;28.56;37.13;99886.00;4437542;32;33678;-78
2021/08/03 09:56:02;;;;;;;;;;;;;;;28.95;35.45;99876.56;4426082;32;34789;-78
2021/08/03 09:58:34;;;;;;;;;;;;;;;29.02;33.57;99874.44;4425524;32;38258;-79
2021/08/03 10:01:20;;;;;;;;;;;;;;;28.90;34.11;99879.19;4427373;32;35007;-81
2021/08/03 10:03:50;;;;;;;;;;;;;;;28.89;34.19;99869.34;4442101;32;33505;-80
2021/08/03 10:06:17;;;;;;;;;;;;;;;28.18;32.97;99883.38;4427523;32;34186;-78
2021/08/03 10:08:46;;;;;;;;;;;;;;;28.90;33.98;99875.66;4441115;32;35273;-79
2021/08/03 10:11:14;;;;;;;;;;;;;;;28.74;34.24;99873.84;4418411;32;35899;-80
2021/08/03 10:13:42;;;;;;;;;;;;;;;28.93;34.87;99878.75;4428505;32;33915;-78
2021/08/03 10:16:10;;;;;;;;;;;;;;;28.98;34.72;99884.25;4429900;32;34871;-77
2021/08/03 10:18:42;;;;;;;;;;;;;;;29.54;33.02;99869.09;4457579;32;35465;-77
2021/08/03 10:21:17;;;;;;;;;;;;;;;29.58;33.89;99865.53;4432159;32;34110;-77
2021/08/03 10:23:45;;;;;;;;;;;;;;;29.61;34.87;99867.75;4429322;32;35211;-75
2021/08/03 10:26:13;;;;;;;;;;;;;;;29.44;33.29;99867.06;4441683;32;33393;-78
2021/08/03 10:28:40;;;;;;;;;;;;;;;29.22;32.50;99869.09;4452511;32;34985;-77
2021/08/03 10:31:27;;;;;;;;;;;;;;;30.01;34.06;99865.19;4428536;32;35699;-76
2021/08/03 10:33:54;;;;;;;;;;;;;;;29.21;32.47;99859.25;4443120;32;33878;-76
2021/08/03 10:36:37;;;;;;;;;;;;;;;29.79;33.89;99863.72;4430964;32;35740;-77
2021/08/03 10:39:14;;;;;;;;;;;;;;;30.36;31.78;99854.38;4446623;32;34965;-78
2021/08/03 10:41:57;;;;;;;;;;;;;;;30.61;31.41;99859.97;4445742;32;36675;-77
2021/08/03 10:44:37;;;;;;;;;;;;;;;30.56;32.79;99858.00;4443729;32;34127;-77
2021/08/03 10:47:25;;;;;;;;;;;;;;;30.66;32.21;99858.03;4448628;32;33043;-75
2021/08/03 10:49:53;;;;;;;;;;;;;;;30.79;30.07;99840.22;4446882;32;36159;-78
2021/08/03 10:52:40;;;;;;;;;;;;;;;29.78;31.95;99853.84;4449882;32;34870;-76
2021/08/03 10:55:08;;;;;;;;;;;;;;;30.84;31.86;99849.28;4443640;32;34075;-78
2021/08/03 10:57:36;;;;;;;;;;;;;;;31.40;29.80;99850.91;4433416;32;35060;-77
2021/08/03 11:00:05;;;;;;;;;;;;;;;31.67;30.29;99847.81;4446565;32;35131;-80
2021/08/03 11:02:38;;;;;;;;;;;;;;;31.88;29.29;99849.41;4443554;32;35201;-77
2021/08/03 11:05:07;;;;;;;;;;;;;;;31.35;29.92;99850.09;4461032;32;33165;-76
2021/08/03 11:07:36;;;;;;;;;;;;;;;31.09;31.36;99852.03;4446934;32;34604;-76
2021/08/03 11:10:06;;;;;;;;;;;;;;;31.37;30.91;99850.63;4443363;32;34605;-77
2021/08/03 11:12:45;;;;;;;;;;;;;;;29.84;32.21;99853.63;4443934;32;34282;-79
2021/08/03 11:15:22;;;;;;;;;;;;;;;30.63;32.43;99841.28;4443914;32;34111;-77
2021/08/03 11:17:53;;;;;;;;;;;;;;;31.09;30.89;99843.78;4443649;32;34115;-76
2021/08/03 11:20:39;;;;;;;;;;;;;;;31.45;30.08;99833.59;4446229;32;34878;-80
2021/08/03 11:23:11;;;;;;;;;;;;;;;31.37;30.40;99820.41;4430644;32;35032;-78
2021/08/03 11:25:38;;;;;;;;;;;;;;;31.71;29.53;99814.00;4454877;32;33199;-79
2021/08/03 11:28:07;;;;;;;;;;;;;;;31.62;30.91;99820.34;4443662;32;34195;-79
2021/08/03 11:30:34;;;;;;;;;;;;;;;30.26;30.73;99809.63;4449008;32;34195;-77
2021/08/03 11:33:02;;;;;;;;;;;;;;;29.61;31.54;99809.34;4430911;32;34727;-81
2021/08/03 11:35:29;;;;;;;;;;;;;;;29.52;30.95;99806.28;4446434;32;33885;-80
2021/08/03 11:38:03;;;;;;;;;;;;;;;29.28;32.02;99799.56;4430773;32;34541;-76
2021/08/03 11:40:44;;;;;;;;;;;;;;;30.85;32.31;99798.72;4445689;32;35308;-76
2021/08/03 11:43:11;;;;;;;;;;;;;;;32.32;30.01;99784.25;4434710;32;34820;-78
2021/08/03 11:45:40;;;;;;;;;;;;;;;33.24;28.79;99773.06;4447185;32;33435;-82
2021/08/03 11:48:15;;;;;;;;;;;;;;;33.53;27.01;99760.03;4431808;32;34134;-77
2021/08/03 11:50:43;;;;;;;;;;;;;;;32.68;27.46;99758.09;4445492;32;35873;-76
2021/08/03 11:53:18;;;;;;;;;;;;;;;32.88;28.11;99756.03;4433142;32;35097;-78
2021/08/03 11:55:48;;;;;;;;;;;;;;;33.57;26.59;99748.13;4418080;32;35033;-79
2021/08/03 11:58:20;;;;;;;;;;;;;;;33.83;28.11;99738.44;4443155;32;33797;-76
2021/08/03 12:00:51;;;;;;;;;;;;;;;33.47;26.03;99737.19;4445921;32;33985;-77
2021/08/03 12:03:32;;;;;;;;;;;;;;;33.90;26.84;99725.09;4442914;32;33813;-79
2021/08/03 12:06:02;;;;;;;;;;;;;;;34.41;24.22;99712.16;4430808;32;34465;-77
2021/08/03 12:08:37;;;;;;;;;;;;;;;33.54;24.25;99710.09;4458029;32;33908;-77
2021/08/03 12:11:32;;;;;;;;;;;;;;;33.68;26.75;99705.47;4444003;32;35556;-77
2021/08/03 12:14:07;;;;;;;;;;;;;;;33.40;26.94;99700.06;4446311;32;34149;-77
2021/08/03 12:16:34;;;;;;;;;;;;;;;33.22;28.53;99698.84;4460599;32;33861;-78
2021/08/03 12:19:02;;;;;;;;;;;;;;;34.00;27.26;99695.38;4446276;32;34809;-77
2021/08/03 12:21:37;;;;;;;;;;;;;;;34.29;25.47;99689.72;4446216;32;34830;-77
2021/08/03 12:24:06;;;;;;;;;;;;;;;34.22;24.87;99692.88;4420553;32;35024;-77
2021/08/03 12:26:33;;;;;;;;;;;;;;;34.01;25.18;99687.94;4460709;32;33323;-78
2021/08/03 12:29:01;;;;;;;;;;;;;;;33.57;25.88;99681.09;4432729;32;35795;-77
2021/08/03 12:31:38;;;;;;;;;;;;;;;32.93;27.19;99689.81;4433288;32;34668;-78
2021/08/03 12:34:09;;;;;;;;;;;;;;;32.17;27.61;99682.47;4433577;32;35430;-77
2021/08/03 12:36:46;;;;;;;;;;;;;;;31.82;28.02;99679.97;4460345;32;32564;-77
2021/08/03 12:39:20;;;;;;;;;;;;;;;32.06;28.62;99681.72;4445481;32;34273;-78
2021/08/03 12:42:02;;;;;;;;;;;;;;;31.76;27.87;99675.59;4460296;32;35473;-80
2021/08/03 12:44:30;;;;;;;;;;;;;;;31.62;28.10;99682.81;4432873;32;34809;-76
2021/08/03 12:47:26;;;;;;;;;;;;;;;31.48;28.51;99679.00;4432796;32;33338;-76
2021/08/03 12:50:04;;;;;;;;;;;;;;;31.75;29.32;99671.19;4458431;32;34499;-79
2021/08/03 12:52:32;;;;;;;;;;;;;;;31.90;30.20;99665.59;4445766;32;35123;-76
2021/08/03 12:55:07;;;;;;;;;;;;;;;31.36;27.75;99664.78;4446057;32;35236;-75
2021/08/03 12:57:45;;;;;;;;;;;;;;;30.09;31.43;99671.81;4432314;32;34250;-77
2021/08/03 13:00:31;;;;;;;;;;;;;;;31.09;30.41;99667.03;4432375;32;35377;-77
2021/08/03 13:03:10;;;;;;;;;;;;;;;31.08;30.22;99668.16;4445431;32;35319;-76
2021/08/03 13:05:39;;;;;;;;;;;;;;;30.95;29.39;99664.06;4445552;32;34802;-79
2021/08/03 13:08:07;;;;;;;;;;;;;;;30.71;29.78;99678.69;4459755;32;33479;-78